createdAt,value
2023-05-10T00:00:44.150Z,0.60
2023-05-10T00:03:12.787Z,0.73
2023-05-10T00:05:41.448Z,0.80
2023-05-10T00:08:10.133Z,0.85
2023-05-10T00:10:41.225Z,1.00
2023-05-10T00:13:09.834Z,0.80
2023-05-10T00:15:38.364Z,0.70
2023-05-10T00:18:07.073Z,0.82
2023-05-10T00:20:35.679Z,0.60
2023-05-10T00:23:04.386Z,0.82
2023-05-10T00:25:32.865Z,1.00
2023-05-10T00:28:03.480Z,0.68
2023-05-10T00:30:32.500Z,0.80
2023-05-10T00:33:01.415Z,0.90
2023-05-10T00:35:30.039Z,1.08
2023-05-10T00:37:58.588Z,1.33
2023-05-10T00:40:27.267Z,0.80
2023-05-10T00:43:02.469Z,0.95
2023-05-10T00:45:31.743Z,0.90
2023-05-10T00:48:01.324Z,0.95
2023-05-10T00:50:30.455Z,1.02
2023-05-10T00:52:59.897Z,0.88
2023-05-10T00:55:28.753Z,1.00
2023-05-10T00:57:57.663Z,0.90
2023-05-10T01:00:30.562Z,0.90
2023-05-10T01:03:00.042Z,1.00
2023-05-10T01:05:29.069Z,1.10
2023-05-10T01:07:59.170Z,0.70
2023-05-10T01:10:27.985Z,0.80
2023-05-10T01:12:57.831Z,1.20
2023-05-10T01:15:28.104Z,1.10
2023-05-10T01:17:57.786Z,1.13
2023-05-10T01:20:27.559Z,0.90
2023-05-10T01:23:33.383Z,1.45
2023-05-10T01:26:41.442Z,1.27
2023-05-10T01:29:20.794Z,0.77
2023-05-10T01:32:21.591Z,1.10
2023-05-10T01:34:57.045Z,1.00
2023-05-10T01:37:33.184Z,0.93
2023-05-10T01:40:08.304Z,0.95
2023-05-10T01:42:43.002Z,1.10
2023-05-10T01:45:18.280Z,1.00
2023-05-10T01:47:53.297Z,0.90
2023-05-10T01:50:25.671Z,1.08
2023-05-10T01:52:56.685Z,1.00
2023-05-10T01:55:28.105Z,1.20
2023-05-10T01:58:03.828Z,2.47
2023-05-10T02:00:33.879Z,0.90
2023-05-10T02:03:07.788Z,1.33
2023-05-10T02:05:38.681Z,1.08
2023-05-10T02:08:09.822Z,1.08
2023-05-10T02:10:41.247Z,1.27
2023-05-10T02:13:12.069Z,1.10
2023-05-10T02:15:42.111Z,1.00
2023-05-10T02:18:13.864Z,1.00
2023-05-10T02:20:42.758Z,1.05
2023-05-10T02:23:13.027Z,1.00
2023-05-10T02:25:43.387Z,1.00
2023-05-10T02:28:13.884Z,0.70
2023-05-10T02:30:43.345Z,1.17
2023-05-10T02:33:15.528Z,1.10
2023-05-10T02:35:44.655Z,1.00
2023-05-10T02:38:13.769Z,2.03
2023-05-10T02:40:43.593Z,1.05
2023-05-10T02:43:16.246Z,1.02
2023-05-10T02:45:48.836Z,1.10
2023-05-10T02:48:19.328Z,0.90
2023-05-10T02:50:52.287Z,1.10
2023-05-10T02:53:25.079Z,0.90
2023-05-10T02:55:57.638Z,2.30
2023-05-10T02:58:26.394Z,1.10
2023-05-10T03:00:54.944Z,1.23
2023-05-10T03:03:24.813Z,1.20
2023-05-10T03:05:54.761Z,1.10
2023-05-10T03:08:24.187Z,1.35
2023-05-10T03:11:03.817Z,1.15
2023-05-10T03:13:38.365Z,1.60
2023-05-10T03:16:12.708Z,1.80
2023-05-10T03:18:46.378Z,2.03
2023-05-10T03:21:17.928Z,2.25
2023-05-10T03:23:49.798Z,2.10
2023-05-10T03:26:24.007Z,2.08
2023-05-10T03:28:54.134Z,2.08
2023-05-10T03:31:23.423Z,2.20
2023-05-10T03:33:54.475Z,2.60
2023-05-10T03:36:27.269Z,2.22
2023-05-10T03:38:57.041Z,2.38
2023-05-10T03:41:27.131Z,2.63
2023-05-10T03:43:56.283Z,2.60
2023-05-10T03:46:24.898Z,2.53
2023-05-10T03:48:54.965Z,2.88
2023-05-10T03:51:23.602Z,2.95
2023-05-10T03:53:52.108Z,4.00
2023-05-10T03:56:21.734Z,4.70
2023-05-10T03:58:50.299Z,5.00
2023-05-10T04:01:19.906Z,5.45
2023-05-10T04:03:49.284Z,6.10
2023-05-10T04:06:19.529Z,5.25
2023-05-10T04:08:48.118Z,5.82
2023-05-10T04:11:16.602Z,5.68
2023-05-10T04:13:45.124Z,6.05
2023-05-10T04:16:13.724Z,6.30
2023-05-10T04:18:42.272Z,6.43
2023-05-10T04:21:14.422Z,6.78
2023-05-10T04:23:44.404Z,6.78
2023-05-10T04:26:13.404Z,7.32
2023-05-10T04:28:42.018Z,8.27
2023-05-10T04:31:11.821Z,7.30
2023-05-10T04:33:40.530Z,8.75
2023-05-10T04:36:09.427Z,8.13
2023-05-10T04:38:37.942Z,7.93
2023-05-10T04:41:08.955Z,8.32
2023-05-10T04:43:38.059Z,7.72
2023-05-10T04:46:07.836Z,8.55
2023-05-10T04:48:36.423Z,9.13
2023-05-10T04:51:05.837Z,9.60
2023-05-10T04:53:34.655Z,9.45
2023-05-10T04:56:03.270Z,9.00
2023-05-10T04:58:33.131Z,9.02
2023-05-10T05:01:07.726Z,8.90
2023-05-10T05:03:36.526Z,9.48
2023-05-10T05:06:05.791Z,9.45
2023-05-10T05:08:34.343Z,9.43
2023-05-10T05:11:02.963Z,9.43
2023-05-10T05:13:32.993Z,8.82
2023-05-10T05:16:03.237Z,9.07
2023-05-10T05:18:31.862Z,8.35
2023-05-10T05:21:00.386Z,8.93
2023-05-10T05:23:29.003Z,8.15
2023-05-10T05:25:57.639Z,7.78
2023-05-10T05:28:26.205Z,8.15
2023-05-10T05:30:56.113Z,7.72
2023-05-10T05:33:24.575Z,8.10
2023-05-10T05:35:53.183Z,7.82
2023-05-10T05:38:21.895Z,7.80
2023-05-10T05:40:50.475Z,7.47
2023-05-10T05:43:19.141Z,7.35
2023-05-10T05:45:47.669Z,7.15
2023-05-10T05:48:17.611Z,6.07
2023-05-10T05:50:46.444Z,6.43
2023-05-10T05:53:15.377Z,6.72
2023-05-10T05:55:54.041Z,6.70
2023-05-10T05:58:22.841Z,7.07
2023-05-10T06:00:52.949Z,7.45
2023-05-10T06:03:23.171Z,7.10
2023-05-10T06:05:51.778Z,6.53
2023-05-10T06:08:20.376Z,6.90
2023-05-10T06:10:49.028Z,6.72
2023-05-10T06:13:17.746Z,6.63
2023-05-10T06:15:46.455Z,6.30
2023-05-10T06:18:15.082Z,6.00
2023-05-10T06:20:45.019Z,6.25
2023-05-10T06:23:13.525Z,6.55
2023-05-10T06:25:42.101Z,6.30
2023-05-10T06:28:10.802Z,7.22
2023-05-10T06:30:39.354Z,6.28
2023-05-10T06:33:07.999Z,6.05
2023-05-10T06:35:37.805Z,6.25
2023-05-10T06:38:07.829Z,5.90
2023-05-10T06:40:36.973Z,4.90
2023-05-10T06:43:05.524Z,4.97
2023-05-10T06:45:34.222Z,5.28
2023-05-10T06:48:02.864Z,5.18
2023-05-10T06:50:31.511Z,5.55
2023-05-10T06:53:00.065Z,5.25
2023-05-10T06:55:30.607Z,5.60
2023-05-10T06:57:59.149Z,5.60
2023-05-10T07:00:28.063Z,5.05
2023-05-10T07:02:57.059Z,5.60
2023-05-10T07:05:25.849Z,5.63
2023-05-10T07:07:54.444Z,5.70
2023-05-10T07:10:23.124Z,5.43
2023-05-10T07:12:53.081Z,4.88
2023-05-10T07:15:21.976Z,5.32
2023-05-10T07:17:50.764Z,5.30
2023-05-10T07:20:19.682Z,5.43
2023-05-10T07:22:48.208Z,5.07
2023-05-10T07:25:16.911Z,4.80
2023-05-10T07:27:45.970Z,4.82
2023-05-10T07:30:16.654Z,4.80
2023-05-10T07:32:45.451Z,5.03
2023-05-10T07:35:14.222Z,5.03
2023-05-10T07:37:42.896Z,4.95
2023-05-10T07:40:12.066Z,5.00
2023-05-10T07:42:40.600Z,5.05
2023-05-10T07:45:10.325Z,4.93
2023-05-10T07:47:40.212Z,4.75
2023-05-10T07:50:10.002Z,4.53
2023-05-10T07:52:38.597Z,4.38
2023-05-10T07:55:08.620Z,4.30
2023-05-10T07:57:37.546Z,4.45
2023-05-10T08:00:07.026Z,4.18
2023-05-10T08:02:43.173Z,4.15
2023-05-10T08:05:11.908Z,4.15
2023-05-10T08:07:40.585Z,3.90
2023-05-10T08:10:12.225Z,4.25
2023-05-10T08:12:41.137Z,3.08
2023-05-10T08:15:11.188Z,3.35
2023-05-10T08:17:40.333Z,3.25
2023-05-10T08:20:11.035Z,3.30
2023-05-10T08:22:39.640Z,3.17
2023-05-10T08:25:09.058Z,2.92
2023-05-10T08:27:37.600Z,3.03
2023-05-10T08:30:07.290Z,2.83
2023-05-10T08:32:36.056Z,2.63
2023-05-10T08:35:04.795Z,2.45
2023-05-10T08:37:34.630Z,2.88
2023-05-10T08:40:03.937Z,2.80
2023-05-10T08:42:33.505Z,2.80
2023-05-10T08:45:02.638Z,2.78
2023-05-10T08:47:31.930Z,2.72
2023-05-10T08:50:01.128Z,2.40
2023-05-10T08:52:31.961Z,2.50
2023-05-10T08:55:01.898Z,2.10
2023-05-10T08:57:30.516Z,2.03
2023-05-10T08:59:59.454Z,2.17
2023-05-10T09:02:28.630Z,1.60
2023-05-10T09:04:57.247Z,1.60
2023-05-10T09:07:25.975Z,1.25
2023-05-10T09:09:55.307Z,1.20
2023-05-10T09:12:25.473Z,1.20
2023-05-10T09:14:56.171Z,1.20
2023-05-10T09:17:27.702Z,1.08
2023-05-10T09:20:00.368Z,0.98
2023-05-10T09:22:29.248Z,1.25
2023-05-10T09:25:08.625Z,1.10
2023-05-10T09:27:39.292Z,0.98
2023-05-10T09:30:09.594Z,1.10
2023-05-10T09:32:39.864Z,1.25
2023-05-10T09:35:09.939Z,1.15
2023-05-10T09:37:38.545Z,1.10
2023-05-10T09:40:08.434Z,1.02
2023-05-10T09:42:38.404Z,1.10
2023-05-10T09:45:08.731Z,0.98
2023-05-10T09:47:38.214Z,1.40
2023-05-10T09:50:08.111Z,1.00
2023-05-10T09:52:49.523Z,0.90
2023-05-10T09:55:19.560Z,1.30
2023-05-10T09:57:49.936Z,1.25
2023-05-10T10:00:22.477Z,1.17
2023-05-10T10:02:57.596Z,1.00
2023-05-10T10:05:30.725Z,1.20
2023-05-10T10:07:59.942Z,1.17
2023-05-10T10:10:29.764Z,1.20
2023-05-10T10:13:00.410Z,1.65
2023-05-10T10:15:29.273Z,1.50
2023-05-10T10:17:57.923Z,1.80
2023-05-10T10:20:26.726Z,2.40
2023-05-10T10:22:56.307Z,2.33
2023-05-10T10:25:25.480Z,2.85
2023-05-10T10:28:08.316Z,1.60
2023-05-10T10:30:42.302Z,2.10
2023-05-10T10:33:31.871Z,1.50
2023-05-10T10:36:03.582Z,1.40
2023-05-10T10:39:02.216Z,3.35
2023-05-10T10:41:33.651Z,3.30
2023-05-10T10:44:38.908Z,3.53
2023-05-10T10:47:12.196Z,2.85
2023-05-10T10:49:45.976Z,2.67
2023-05-10T10:52:29.298Z,2.60
2023-05-10T10:55:02.972Z,2.45
2023-05-10T10:57:34.397Z,1.65
2023-05-10T11:00:24.009Z,1.20
2023-05-10T11:02:54.309Z,1.00
2023-05-10T11:05:43.916Z,0.95
2023-05-10T11:08:18.423Z,1.10
2023-05-10T11:11:05.595Z,1.13
2023-05-10T11:13:39.401Z,1.00
2023-05-10T11:16:20.448Z,0.75
2023-05-10T11:18:58.539Z,0.85
2023-05-10T11:21:27.254Z,0.70
2023-05-10T11:23:58.285Z,0.70
2023-05-10T11:26:27.676Z,0.70
2023-05-10T11:29:00.136Z,0.77
2023-05-10T11:31:30.898Z,0.82
2023-05-10T11:34:02.692Z,0.88
2023-05-10T11:36:35.476Z,1.02
2023-05-10T11:39:04.945Z,0.90
2023-05-10T11:41:34.178Z,0.70
2023-05-10T11:44:03.667Z,0.80
2023-05-10T11:46:33.783Z,0.90
2023-05-10T11:49:05.319Z,0.90
2023-05-10T11:51:36.623Z,1.00
2023-05-10T11:54:09.195Z,0.80
2023-05-10T11:56:38.277Z,1.00
2023-05-10T11:59:06.994Z,0.73
2023-05-10T12:01:37.369Z,0.90
2023-05-10T12:04:06.337Z,1.00
2023-05-10T12:06:41.617Z,1.08
2023-05-10T12:09:10.524Z,1.27
2023-05-10T12:11:43.488Z,1.10
2023-05-10T12:14:13.158Z,1.55
2023-05-10T12:16:45.641Z,1.40
2023-05-10T12:19:14.401Z,1.38
2023-05-10T12:21:42.980Z,1.42
2023-05-10T12:24:11.650Z,1.30
2023-05-10T12:26:40.185Z,1.08
2023-05-10T12:29:16.533Z,0.88
2023-05-10T12:31:54.065Z,0.50
2023-05-10T12:34:32.991Z,0.80
2023-05-10T12:37:01.847Z,1.00
2023-05-10T12:39:41.443Z,0.73
2023-05-10T12:42:11.592Z,0.93
2023-05-10T12:44:40.741Z,0.90
2023-05-10T12:47:11.714Z,0.90
2023-05-10T12:49:40.400Z,0.77
2023-05-10T12:52:09.019Z,0.98
2023-05-10T12:54:37.515Z,0.90
2023-05-10T12:57:06.147Z,1.10
2023-05-10T12:59:36.038Z,0.90
2023-05-10T13:02:07.055Z,1.08
2023-05-10T13:04:38.534Z,0.90
2023-05-10T13:07:07.420Z,0.70
2023-05-10T13:09:36.362Z,0.80
2023-05-10T13:12:05.715Z,0.93
2023-05-10T13:14:34.966Z,1.00
2023-05-10T13:17:03.637Z,0.70
2023-05-10T13:19:32.278Z,1.00
2023-05-10T13:22:02.130Z,0.60
2023-05-10T13:24:31.022Z,0.80
2023-05-10T13:27:00.003Z,0.70
2023-05-10T13:29:28.633Z,0.60
2023-05-10T13:31:57.369Z,0.60
2023-05-10T13:34:26.102Z,0.70
2023-05-10T13:36:56.735Z,0.60
2023-05-10T13:39:26.732Z,0.73
2023-05-10T13:41:55.842Z,0.70
2023-05-10T13:44:24.536Z,0.77
2023-05-10T13:46:53.198Z,1.00
2023-05-10T13:49:22.494Z,1.15
2023-05-10T13:51:51.947Z,1.05
2023-05-10T13:54:20.822Z,1.20
2023-05-10T13:56:50.714Z,1.20
2023-05-10T13:59:19.317Z,1.20
2023-05-10T14:01:48.321Z,1.35
2023-05-10T14:04:16.904Z,1.00
2023-05-10T14:06:45.643Z,1.20
2023-05-10T14:09:14.801Z,1.10
2023-05-10T14:11:44.183Z,1.25
2023-05-10T14:14:14.687Z,1.27
2023-05-10T14:16:45.145Z,1.20
2023-05-10T14:19:13.783Z,1.10
2023-05-10T14:21:42.347Z,1.00
2023-05-10T14:24:11.149Z,1.20
2023-05-10T14:26:39.788Z,1.15
2023-05-10T14:29:09.927Z,1.30
2023-05-10T14:31:42.089Z,1.63
2023-05-10T14:34:10.752Z,1.52
2023-05-10T14:36:39.898Z,1.35
2023-05-10T14:39:08.898Z,1.80
2023-05-10T14:41:38.050Z,1.65
2023-05-10T14:44:06.750Z,2.17
2023-05-10T14:46:35.443Z,2.40
2023-05-10T14:49:05.500Z,2.85
2023-05-10T14:51:34.040Z,2.63
2023-05-10T14:54:03.444Z,2.90
2023-05-10T14:56:31.969Z,3.00
2023-05-10T14:59:01.112Z,2.80
2023-05-10T15:01:30.276Z,3.03
2023-05-10T15:03:59.719Z,2.95
2023-05-10T15:06:34.716Z,2.42
2023-05-10T15:09:04.583Z,2.40
2023-05-10T15:11:33.186Z,2.72
2023-05-10T15:14:02.766Z,3.13
2023-05-10T15:16:32.857Z,2.72
2023-05-10T15:19:03.844Z,2.67
2023-05-10T15:21:39.819Z,2.53
2023-05-10T15:24:08.622Z,2.53
2023-05-10T15:26:37.200Z,2.50
2023-05-10T15:29:05.842Z,2.70
2023-05-10T15:31:36.076Z,2.60
2023-05-10T15:34:04.808Z,2.38
2023-05-10T15:36:35.089Z,2.80
2023-05-10T15:39:03.694Z,2.58
2023-05-10T15:41:32.389Z,2.63
2023-05-10T15:44:01.751Z,2.75
2023-05-10T15:46:30.914Z,2.67
2023-05-10T15:49:00.250Z,3.20
2023-05-10T15:51:28.995Z,3.00
2023-05-10T15:54:07.077Z,3.25
2023-05-10T15:56:36.666Z,3.03
2023-05-10T15:59:06.052Z,3.08
2023-05-10T16:01:34.961Z,2.88
2023-05-10T16:04:03.499Z,3.00
2023-05-10T16:06:32.666Z,3.00
2023-05-10T16:09:02.676Z,2.92
2023-05-10T16:11:31.398Z,3.08
2023-05-10T16:14:00.572Z,3.13
2023-05-10T16:16:29.258Z,3.20
2023-05-10T16:18:58.348Z,3.35
2023-05-10T16:21:26.921Z,2.38
2023-05-10T16:23:55.559Z,2.60
2023-05-10T16:26:25.644Z,2.28
2023-05-10T16:28:54.154Z,2.80
2023-05-10T16:31:23.355Z,3.20
2023-05-10T16:33:51.965Z,2.40
2023-05-10T16:36:20.588Z,3.05
2023-05-10T16:38:49.160Z,2.10
2023-05-10T16:41:17.696Z,2.13
2023-05-10T16:43:47.564Z,2.58
2023-05-10T16:46:16.194Z,2.00
2023-05-10T16:48:44.803Z,2.22
2023-05-10T16:51:13.405Z,2.33
2023-05-10T16:53:42.024Z,2.15
2023-05-10T16:56:11.291Z,2.20
2023-05-10T16:58:39.838Z,2.13
2023-05-10T17:01:09.884Z,2.00
2023-05-10T17:03:38.525Z,1.80
2023-05-10T17:06:07.919Z,1.83
2023-05-10T17:08:36.511Z,1.98
2023-05-10T17:11:05.947Z,2.17
2023-05-10T17:13:34.925Z,2.90
2023-05-10T17:16:04.834Z,2.10
2023-05-10T17:18:34.948Z,1.65
2023-05-10T17:21:03.550Z,2.10
2023-05-10T17:23:32.036Z,1.98
2023-05-10T17:26:01.830Z,1.98
2023-05-10T17:28:30.450Z,1.50
2023-05-10T17:30:59.530Z,1.40
2023-05-10T17:33:28.174Z,1.70
2023-05-10T17:35:58.111Z,1.58
2023-05-10T17:38:26.869Z,1.73
2023-05-10T17:40:55.499Z,1.60
2023-05-10T17:43:26.060Z,1.80
2023-05-10T17:45:54.674Z,1.77
2023-05-10T17:48:23.338Z,1.80
2023-05-10T17:50:52.348Z,1.55
2023-05-10T17:53:22.206Z,1.60
2023-05-10T17:55:52.727Z,1.73
2023-05-10T17:58:21.231Z,1.95
2023-05-10T18:00:49.792Z,2.03
2023-05-10T18:03:18.386Z,2.20
2023-05-10T18:05:48.326Z,2.00
2023-05-10T18:08:22.374Z,2.05
2023-05-10T18:10:52.346Z,2.10
2023-05-10T18:13:20.896Z,1.88
2023-05-10T18:15:49.714Z,1.80
2023-05-10T18:18:18.371Z,2.10
2023-05-10T18:20:47.111Z,2.03
2023-05-10T18:23:15.655Z,2.03
2023-05-10T18:25:44.182Z,1.63
2023-05-10T18:28:14.043Z,2.20
2023-05-10T18:30:42.785Z,1.95
2023-05-10T18:33:11.821Z,1.98
2023-05-10T18:35:40.929Z,1.85
2023-05-10T18:38:10.063Z,2.10
2023-05-10T18:40:38.695Z,2.47
2023-05-10T18:43:07.461Z,2.15
2023-05-10T18:45:38.883Z,2.13
2023-05-10T18:48:07.943Z,2.33
2023-05-10T18:50:36.575Z,2.00
2023-05-10T18:53:05.210Z,2.50
2023-05-10T18:55:33.774Z,2.10
2023-05-10T18:58:02.265Z,2.10
2023-05-10T19:00:30.801Z,2.30
2023-05-10T19:03:00.677Z,2.00
2023-05-10T19:05:30.384Z,2.15
2023-05-10T19:07:58.922Z,2.10
2023-05-10T19:10:27.598Z,1.80
2023-05-10T19:12:57.177Z,2.22
2023-05-10T19:15:25.735Z,2.10
2023-05-10T19:17:54.766Z,1.73
2023-05-10T19:20:25.473Z,2.25
2023-05-10T19:23:02.591Z,1.77
2023-05-10T19:25:39.173Z,1.92
2023-05-10T19:28:09.591Z,1.88
2023-05-10T19:30:38.348Z,1.75
2023-05-10T19:33:07.088Z,1.70
2023-05-10T19:35:37.349Z,1.83
2023-05-10T19:38:06.151Z,1.70
2023-05-10T19:40:34.809Z,1.80
2023-05-10T19:43:03.753Z,1.65
2023-05-10T19:45:37.142Z,1.60
2023-05-10T19:48:06.076Z,1.50
2023-05-10T19:50:36.231Z,1.67
2023-05-10T19:53:04.743Z,1.45
2023-05-10T19:55:33.741Z,1.50
2023-05-10T19:58:02.363Z,1.55
2023-05-10T20:00:31.507Z,1.50
2023-05-10T20:03:00.506Z,1.23
2023-05-10T20:05:30.784Z,2.03
2023-05-10T20:08:00.715Z,1.70
2023-05-10T20:10:29.352Z,1.63
2023-05-10T20:12:58.984Z,1.50
2023-05-10T20:15:28.155Z,1.40
2023-05-10T20:17:56.990Z,2.47
2023-05-10T20:20:25.551Z,1.23
2023-05-10T20:22:54.097Z,1.40
2023-05-10T20:25:24.119Z,1.50
2023-05-10T20:27:52.605Z,1.45
2023-05-10T20:30:21.417Z,1.42
2023-05-10T20:32:50.078Z,1.80
2023-05-10T20:35:18.764Z,1.90
2023-05-10T20:37:48.427Z,2.08
2023-05-10T20:40:17.279Z,2.15
2023-05-10T20:42:47.756Z,2.42
2023-05-10T20:45:16.723Z,2.10
2023-05-10T20:47:45.268Z,2.10
2023-05-10T20:50:13.895Z,2.33
2023-05-10T20:52:42.678Z,2.00
2023-05-10T20:55:11.606Z,2.45
2023-05-10T20:57:40.154Z,2.28
2023-05-10T21:00:11.438Z,2.05
2023-05-10T21:02:40.057Z,2.03
2023-05-10T21:05:09.236Z,1.95
2023-05-10T21:07:38.962Z,1.85
2023-05-10T21:10:09.771Z,2.22
2023-05-10T21:12:38.420Z,2.40
2023-05-10T21:15:08.076Z,2.45
2023-05-10T21:17:37.999Z,2.00
2023-05-10T21:20:08.048Z,2.60
2023-05-10T21:22:36.631Z,2.40
2023-05-10T21:25:05.619Z,2.38
2023-05-10T21:27:34.756Z,2.38
2023-05-10T21:30:03.335Z,2.42
2023-05-10T21:32:31.883Z,2.40
2023-05-10T21:35:01.763Z,2.20
2023-05-10T21:37:30.353Z,1.95
2023-05-10T21:39:58.892Z,2.28
2023-05-10T21:42:27.400Z,1.95
2023-05-10T21:44:56.335Z,2.00
2023-05-10T21:47:24.881Z,1.88
2023-05-10T21:49:53.322Z,1.70
2023-05-10T21:52:23.247Z,1.92
2023-05-10T21:54:51.754Z,1.88
2023-05-10T21:57:21.450Z,2.05
2023-05-10T21:59:50.214Z,1.80
2023-05-10T22:02:18.833Z,1.55
2023-05-10T22:04:47.779Z,2.10
2023-05-10T22:07:16.873Z,1.65
2023-05-10T22:09:46.904Z,1.70
2023-05-10T22:12:15.413Z,1.95
2023-05-10T22:14:43.887Z,1.90
2023-05-10T22:17:12.506Z,1.80
2023-05-10T22:19:41.215Z,2.00
2023-05-10T22:22:10.048Z,1.85
2023-05-10T22:24:38.535Z,1.42
2023-05-10T22:27:08.655Z,1.60
2023-05-10T22:29:37.179Z,1.80
2023-05-10T22:32:06.413Z,1.60
2023-05-10T22:34:35.430Z,1.45
2023-05-10T22:37:04.662Z,1.20
2023-05-10T22:39:34.139Z,1.20
2023-05-10T22:42:02.745Z,0.90
2023-05-10T22:44:32.645Z,0.80
2023-05-10T22:47:01.190Z,0.85
2023-05-10T22:49:29.731Z,0.60
2023-05-10T22:51:58.241Z,0.70
2023-05-10T22:54:26.834Z,0.60
2023-05-10T22:56:55.713Z,0.52
2023-05-10T22:59:24.670Z,1.23
2023-05-10T23:01:55.414Z,0.50
2023-05-10T23:04:24.102Z,0.60
2023-05-10T23:06:53.629Z,0.50
2023-05-10T23:09:22.257Z,0.52
2023-05-10T23:11:50.811Z,0.50
2023-05-10T23:14:19.351Z,0.50
2023-05-10T23:16:47.985Z,0.40
2023-05-10T23:19:17.897Z,0.50
2023-05-10T23:21:46.415Z,0.50
2023-05-10T23:24:15.115Z,0.32
2023-05-10T23:26:46.347Z,0.40
2023-05-10T23:29:14.918Z,0.50
2023-05-10T23:31:45.778Z,0.68
2023-05-10T23:34:14.304Z,0.43
2023-05-10T23:36:44.300Z,0.30
2023-05-10T23:39:13.507Z,0.40
2023-05-10T23:41:42.670Z,0.50
2023-05-10T23:44:11.247Z,0.43
2023-05-10T23:46:39.866Z,0.40
2023-05-10T23:49:08.405Z,0.60
2023-05-10T23:51:37.006Z,0.45
2023-05-10T23:54:07.059Z,0.40
2023-05-10T23:56:35.802Z,0.40
2023-05-10T23:59:05.877Z,0.50
